sensor_id;sensor_type;location;lat;lon;timestamp;pressure;altitude;pressure_sealevel;temperature;humidity
3260;BME280;68938;48.150;14.004;2023-05-11T00:01:08;97830.16;;;15.01;76.44
3260;BME280;68938;48.150;14.004;2023-05-11T00:03:35;97827.59;;;15.01;76.99
3260;BME280;68938;48.150;14.004;2023-05-11T00:06:02;97830.75;;;15.06;76.80
3260;BME280;68938;48.150;14.004;2023-05-11T00:08:29;97820.66;;;15.02;76.64
3260;BME280;68938;48.150;14.004;2023-05-11T00:10:56;97818.56;;;14.92;77.19
3260;BME280;68938;48.150;14.004;2023-05-11T00:13:23;97815.88;;;14.78;77.26
3260;BME280;68938;48.150;14.004;2023-05-11T00:15:49;97812.56;;;14.59;77.77
3260;BME280;68938;48.150;14.004;2023-05-11T00:18:16;97810.69;;;14.78;77.53
3260;BME280;68938;48.150;14.004;2023-05-11T00:20:44;97805.81;;;14.89;77.35
3260;BME280;68938;48.150;14.004;2023-05-11T00:23:11;97806.06;;;14.85;77.59
3260;BME280;68938;48.150;14.004;2023-05-11T00:25:38;97804.16;;;14.88;77.45
3260;BME280;68938;48.150;14.004;2023-05-11T00:28:05;97795.16;;;14.96;77.21
3260;BME280;68938;48.150;14.004;2023-05-11T00:30:32;97796.50;;;15.03;77.03
3260;BME280;68938;48.150;14.004;2023-05-11T00:32:59;97804.91;;;15.06;76.80
3260;BME280;68938;48.150;14.004;2023-05-11T00:35:26;97796.34;;;15.06;77.05
3260;BME280;68938;48.150;14.004;2023-05-11T00:37:53;97799.06;;;15.03;77.45
3260;BME280;68938;48.150;14.004;2023-05-11T00:40:20;97794.56;;;15.06;76.52
3260;BME280;68938;48.150;14.004;2023-05-11T00:42:46;97787.53;;;14.77;76.96
3260;BME280;68938;48.150;14.004;2023-05-11T00:45:15;97794.75;;;14.87;76.83
3260;BME280;68938;48.150;14.004;2023-05-11T00:47:42;97793.50;;;14.95;76.29
3260;BME280;68938;48.150;14.004;2023-05-11T00:50:09;97788.06;;;14.99;75.86
3260;BME280;68938;48.150;14.004;2023-05-11T00:52:36;97801.84;;;15.15;75.47
3260;BME280;68938;48.150;14.004;2023-05-11T00:55:04;97797.25;;;15.21;75.24
3260;BME280;68938;48.150;14.004;2023-05-11T00:57:32;97797.84;;;15.26;74.72
3260;BME280;68938;48.150;14.004;2023-05-11T01:00:01;97797.84;;;15.26;74.43
3260;BME280;68938;48.150;14.004;2023-05-11T01:02:28;97800.75;;;15.20;74.46
3260;BME280;68938;48.150;14.004;2023-05-11T01:04:56;97796.34;;;15.22;74.30
3260;BME280;68938;48.150;14.004;2023-05-11T01:07:28;97800.09;;;15.16;74.29
3260;BME280;68938;48.150;14.004;2023-05-11T01:10:26;97795.59;;;15.20;74.34
3260;BME280;68938;48.150;14.004;2023-05-11T01:15:53;97791.75;;;15.27;74.18
3260;BME280;68938;48.150;14.004;2023-05-11T01:18:29;97796.84;;;15.28;74.00
3260;BME280;68938;48.150;14.004;2023-05-11T01:21:01;97794.28;;;15.28;73.95
3260;BME280;68938;48.150;14.004;2023-05-11T01:23:52;97776.91;;;15.30;73.67
3260;BME280;68938;48.150;14.004;2023-05-11T01:32:37;97800.44;;;15.26;73.66
3260;BME280;68938;48.150;14.004;2023-05-11T01:35:11;97801.25;;;15.26;73.52
3260;BME280;68938;48.150;14.004;2023-05-11T01:37:48;97797.75;;;15.27;73.43
3260;BME280;68938;48.150;14.004;2023-05-11T01:40:22;97804.34;;;15.33;73.45
3260;BME280;68938;48.150;14.004;2023-05-11T01:43:00;97803.25;;;15.37;73.41
3260;BME280;68938;48.150;14.004;2023-05-11T01:45:32;97794.84;;;15.33;73.26
3260;BME280;68938;48.150;14.004;2023-05-11T01:48:16;97803.19;;;15.38;73.07
3260;BME280;68938;48.150;14.004;2023-05-11T01:50:46;97794.75;;;15.35;72.77
3260;BME280;68938;48.150;14.004;2023-05-11T01:53:16;97800.41;;;15.41;73.11
3260;BME280;68938;48.150;14.004;2023-05-11T01:55:44;97803.91;;;15.40;73.01
3260;BME280;68938;48.150;14.004;2023-05-11T01:58:14;97802.31;;;15.38;73.21
3260;BME280;68938;48.150;14.004;2023-05-11T02:00:44;97804.41;;;15.31;72.96
3260;BME280;68938;48.150;14.004;2023-05-11T02:03:12;97805.16;;;15.33;73.09
3260;BME280;68938;48.150;14.004;2023-05-11T02:05:42;97798.34;;;15.32;72.67
3260;BME280;68938;48.150;14.004;2023-05-11T02:08:12;97801.75;;;15.33;72.95
3260;BME280;68938;48.150;14.004;2023-05-11T02:10:41;97808.59;;;15.34;72.99
3260;BME280;68938;48.150;14.004;2023-05-11T02:13:09;97807.50;;;15.38;72.88
3260;BME280;68938;48.150;14.004;2023-05-11T02:15:41;97809.84;;;15.43;72.88
3260;BME280;68938;48.150;14.004;2023-05-11T02:18:11;97812.44;;;15.43;72.61
3260;BME280;68938;48.150;14.004;2023-05-11T02:20:44;97812.28;;;15.46;72.66
3260;BME280;68938;48.150;14.004;2023-05-11T02:23:13;97807.34;;;15.41;72.61
3260;BME280;68938;48.150;14.004;2023-05-11T02:25:42;97799.69;;;15.39;72.14
3260;BME280;68938;48.150;14.004;2023-05-11T02:28:09;97808.81;;;15.45;72.30
3260;BME280;68938;48.150;14.004;2023-05-11T02:30:44;97800.06;;;15.48;72.46
3260;BME280;68938;48.150;14.004;2023-05-11T02:33:37;97801.84;;;15.47;72.62
3260;BME280;68938;48.150;14.004;2023-05-11T02:36:07;97803.66;;;15.45;72.21
3260;BME280;68938;48.150;14.004;2023-05-11T02:38:36;97802.81;;;15.45;72.35
3260;BME280;68938;48.150;14.004;2023-05-11T02:41:11;97801.00;;;15.47;72.38
3260;BME280;68938;48.150;14.004;2023-05-11T02:43:48;97797.59;;;15.46;72.22
3260;BME280;68938;48.150;14.004;2023-05-11T02:46:20;97794.91;;;15.48;72.39
3260;BME280;68938;48.150;14.004;2023-05-11T02:48:54;97799.19;;;15.49;72.02
3260;BME280;68938;48.150;14.004;2023-05-11T02:51:28;97798.91;;;15.53;71.97
3260;BME280;68938;48.150;14.004;2023-05-11T02:53:58;97798.25;;;15.50;72.19
3260;BME280;68938;48.150;14.004;2023-05-11T02:56:28;97798.16;;;15.51;72.10
3260;BME280;68938;48.150;14.004;2023-05-11T02:58:55;97798.25;;;15.50;72.19
3260;BME280;68938;48.150;14.004;2023-05-11T03:01:22;97795.44;;;15.38;72.34
3260;BME280;68938;48.150;14.004;2023-05-11T03:03:50;97796.75;;;15.30;72.37
3260;BME280;68938;48.150;14.004;2023-05-11T03:06:17;97799.44;;;15.28;72.47
3260;BME280;68938;48.150;14.004;2023-05-11T03:08:44;97800.25;;;15.29;72.38
3260;BME280;68938;48.150;14.004;2023-05-11T03:11:13;97795.44;;;15.23;72.70
3260;BME280;68938;48.150;14.004;2023-05-11T03:13:42;97797.41;;;15.17;72.73
3260;BME280;68938;48.150;14.004;2023-05-11T03:16:11;97794.50;;;15.24;72.64
3260;BME280;68938;48.150;14.004;2023-05-11T03:18:39;97797.09;;;15.24;72.62
3260;BME280;68938;48.150;14.004;2023-05-11T03:21:07;97778.59;;;15.15;72.38
3260;BME280;68938;48.150;14.004;2023-05-11T03:23:34;97791.25;;;15.20;72.52
3260;BME280;68938;48.150;14.004;2023-05-11T03:26:05;97788.50;;;15.23;72.27
3260;BME280;68938;48.150;14.004;2023-05-11T03:28:33;97791.25;;;15.20;72.73
3260;BME280;68938;48.150;14.004;2023-05-11T03:31:02;97790.69;;;15.15;72.88
3260;BME280;68938;48.150;14.004;2023-05-11T03:33:30;97787.09;;;15.02;73.28
3260;BME280;68938;48.150;14.004;2023-05-11T03:35:58;97786.00;;;15.06;73.04
3260;BME280;68938;48.150;14.004;2023-05-11T03:38:27;97785.59;;;14.98;73.23
3260;BME280;68938;48.150;14.004;2023-05-11T03:40:55;97781.00;;;15.03;73.00
3260;BME280;68938;48.150;14.004;2023-05-11T03:43:25;97783.91;;;15.12;72.71
3260;BME280;68938;48.150;14.004;2023-05-11T03:45:56;97778.50;;;15.17;72.78
3260;BME280;68938;48.150;14.004;2023-05-11T03:48:23;97779.09;;;15.22;72.69
3260;BME280;68938;48.150;14.004;2023-05-11T03:50:50;97778.84;;;15.27;72.37
3260;BME280;68938;48.150;14.004;2023-05-11T03:53:18;97784.75;;;15.29;72.51
3260;BME280;68938;48.150;14.004;2023-05-11T03:55:45;97786.41;;;15.30;72.58
3260;BME280;68938;48.150;14.004;2023-05-11T03:58:12;97786.31;;;15.31;72.53
3260;BME280;68938;48.150;14.004;2023-05-11T04:00:40;97786.53;;;15.28;72.47
3260;BME280;68938;48.150;14.004;2023-05-11T04:03:08;97788.00;;;15.32;72.56
3260;BME280;68938;48.150;14.004;2023-05-11T04:05:35;97781.41;;;15.27;71.98
3260;BME280;68938;48.150;14.004;2023-05-11T04:08:03;97775.69;;;15.22;72.30
3260;BME280;68938;48.150;14.004;2023-05-11T04:10:31;97782.91;;;15.31;72.28
3260;BME280;68938;48.150;14.004;2023-05-11T04:12:57;97781.84;;;15.19;72.38
3260;BME280;68938;48.150;14.004;2023-05-11T04:15:24;97782.94;;;15.15;71.79
3260;BME280;68938;48.150;14.004;2023-05-11T04:17:51;97785.69;;;15.12;72.70
3260;BME280;68938;48.150;14.004;2023-05-11T04:20:18;97782.66;;;15.20;72.63
3260;BME280;68938;48.150;14.004;2023-05-11T04:22:45;97783.09;;;15.12;72.41
3260;BME280;68938;48.150;14.004;2023-05-11T04:25:12;97780.34;;;15.15;72.55
3260;BME280;68938;48.150;14.004;2023-05-11T04:27:39;97787.41;;;15.27;72.50
3260;BME280;68938;48.150;14.004;2023-05-11T04:30:07;97781.25;;;15.30;72.52
3260;BME280;68938;48.150;14.004;2023-05-11T04:32:35;97782.75;;;15.34;72.35
3260;BME280;68938;48.150;14.004;2023-05-11T04:35:02;97790.94;;;15.42;72.47
3260;BME280;68938;48.150;14.004;2023-05-11T04:37:29;97791.66;;;15.44;72.15
3260;BME280;68938;48.150;14.004;2023-05-11T04:39:56;97782.09;;;15.46;71.87
3260;BME280;68938;48.150;14.004;2023-05-11T04:42:23;97792.09;;;15.52;72.07
3260;BME280;68938;48.150;14.004;2023-05-11T04:44:53;97791.16;;;15.53;72.12
3260;BME280;68938;48.150;14.004;2023-05-11T04:47:20;97797.91;;;15.56;71.59
3260;BME280;68938;48.150;14.004;2023-05-11T04:49:47;97789.41;;;15.54;71.65
3260;BME280;68938;48.150;14.004;2023-05-11T04:52:14;97790.16;;;15.56;71.54
3260;BME280;68938;48.150;14.004;2023-05-11T04:54:40;97793.25;;;15.62;71.48
3260;BME280;68938;48.150;14.004;2023-05-11T04:57:07;97797.38;;;15.65;71.55
3260;BME280;68938;48.150;14.004;2023-05-11T04:59:34;97792.06;;;15.68;71.47
3260;BME280;68938;48.150;14.004;2023-05-11T05:02:01;97797.19;;;15.70;71.17
3260;BME280;68938;48.150;14.004;2023-05-11T05:04:28;97792.75;;;15.72;70.72
3260;BME280;68938;48.150;14.004;2023-05-11T05:06:55;97791.75;;;15.74;71.16
3260;BME280;68938;48.150;14.004;2023-05-11T05:09:22;97789.97;;;15.75;70.98
3260;BME280;68938;48.150;14.004;2023-05-11T05:11:48;97796.41;;;15.68;71.00
3260;BME280;68938;48.150;14.004;2023-05-11T05:14:15;97798.22;;;15.65;70.96
3260;BME280;68938;48.150;14.004;2023-05-11T05:16:42;97797.31;;;15.51;70.22
3260;BME280;68938;48.150;14.004;2023-05-11T05:19:09;97798.25;;;15.50;71.08
3260;BME280;68938;48.150;14.004;2023-05-11T05:21:36;97800.41;;;15.57;70.97
3260;BME280;68938;48.150;14.004;2023-05-11T05:24:03;97806.25;;;15.61;70.82
3260;BME280;68938;48.150;14.004;2023-05-11T05:26:30;97806.16;;;15.62;70.84
3260;BME280;68938;48.150;14.004;2023-05-11T05:28:57;97801.72;;;15.64;70.74
3260;BME280;68938;48.150;14.004;2023-05-11T05:31:24;97808.56;;;15.65;70.79
3260;BME280;68938;48.150;14.004;2023-05-11T05:33:51;97814.53;;;15.68;70.77
3260;BME280;68938;48.150;14.004;2023-05-11T05:36:18;97811.25;;;15.64;70.92
3260;BME280;68938;48.150;14.004;2023-05-11T05:38:45;97808.00;;;15.60;70.89
3260;BME280;68938;48.150;14.004;2023-05-11T05:41:12;97816.75;;;15.58;71.11
3260;BME280;68938;48.150;14.004;2023-05-11T05:43:39;97814.44;;;15.53;71.04
3260;BME280;68938;48.150;14.004;2023-05-11T05:46:06;97814.25;;;15.56;71.47
3260;BME280;68938;48.150;14.004;2023-05-11T05:48:33;97815.91;;;15.57;71.67
3260;BME280;68938;48.150;14.004;2023-05-11T05:51:00;97821.84;;;15.59;71.74
3260;BME280;68938;48.150;14.004;2023-05-11T05:53:27;97819.09;;;15.62;71.65
3260;BME280;68938;48.150;14.004;2023-05-11T05:55:53;97820.66;;;15.65;71.49
3260;BME280;68938;48.150;14.004;2023-05-11T05:58:20;97819.94;;;15.63;71.33
3260;BME280;68938;48.150;14.004;2023-05-11T06:00:47;97824.06;;;15.65;70.34
3260;BME280;68938;48.150;14.004;2023-05-11T06:03:14;97823.22;;;15.67;70.30
3260;BME280;68938;48.150;14.004;2023-05-11T06:05:41;97826.75;;;15.64;70.50
3260;BME280;68938;48.150;14.004;2023-05-11T06:08:08;97826.63;;;15.67;70.80
3260;BME280;68938;48.150;14.004;2023-05-11T06:10:37;97822.50;;;15.63;70.88
3260;BME280;68938;48.150;14.004;2023-05-11T06:13:04;97835.88;;;15.71;71.13
3260;BME280;68938;48.150;14.004;2023-05-11T06:15:33;97832.34;;;15.72;71.05
3260;BME280;68938;48.150;14.004;2023-05-11T06:18:00;97833.22;;;15.73;70.79
3260;BME280;68938;48.150;14.004;2023-05-11T06:20:27;97825.63;;;15.70;70.72
3260;BME280;68938;48.150;14.004;2023-05-11T06:22:54;97825.53;;;15.71;71.05
3260;BME280;68938;48.150;14.004;2023-05-11T06:25:21;97833.00;;;15.76;70.92
3260;BME280;68938;48.150;14.004;2023-05-11T06:27:48;97831.19;;;15.78;70.91
3260;BME280;68938;48.150;14.004;2023-05-11T06:30:15;97825.91;;;15.79;70.89
3260;BME280;68938;48.150;14.004;2023-05-11T06:32:42;97835.44;;;15.79;70.92
3260;BME280;68938;48.150;14.004;2023-05-11T06:35:09;97833.69;;;15.79;70.41
3260;BME280;68938;48.150;14.004;2023-05-11T06:37:36;97836.78;;;15.70;70.76
3260;BME280;68938;48.150;14.004;2023-05-11T06:40:03;97834.38;;;15.67;70.69
3260;BME280;68938;48.150;14.004;2023-05-11T06:42:30;97829.78;;;15.72;70.78
3260;BME280;68938;48.150;14.004;2023-05-11T06:44:57;97834.88;;;15.74;70.76
3260;BME280;68938;48.150;14.004;2023-05-11T06:47:24;97838.44;;;15.71;71.61
3260;BME280;68938;48.150;14.004;2023-05-11T06:49:51;97831.81;;;15.65;71.83
3260;BME280;68938;48.150;14.004;2023-05-11T06:52:18;97830.13;;;15.66;72.81
3260;BME280;68938;48.150;14.004;2023-05-11T06:54:45;97835.31;;;15.66;72.43
3260;BME280;68938;48.150;14.004;2023-05-11T06:57:12;97827.69;;;15.63;72.27
3260;BME280;68938;48.150;14.004;2023-05-11T06:59:40;97818.03;;;15.67;71.50
3260;BME280;68938;48.150;14.004;2023-05-11T07:02:07;97827.13;;;15.74;71.83
3260;BME280;68938;48.150;14.004;2023-05-11T07:04:33;97816.66;;;15.75;71.70
3260;BME280;68938;48.150;14.004;2023-05-11T07:07:01;97828.16;;;15.85;71.89
3260;BME280;68938;48.150;14.004;2023-05-11T07:09:28;97831.34;;;15.91;71.30
3260;BME280;68938;48.150;14.004;2023-05-11T07:11:55;97828.50;;;15.95;71.22
3260;BME280;68938;48.150;14.004;2023-05-11T07:14:22;97828.31;;;15.98;70.58
3260;BME280;68938;48.150;14.004;2023-05-11T07:16:49;97822.13;;;16.01;70.18
3260;BME280;68938;48.150;14.004;2023-05-11T07:19:16;97828.22;;;16.00;69.34
3260;BME280;68938;48.150;14.004;2023-05-11T07:21:43;97825.81;;;15.97;68.71
3260;BME280;68938;48.150;14.004;2023-05-11T07:24:10;97829.97;;;15.99;68.49
3260;BME280;68938;48.150;14.004;2023-05-11T07:26:37;97821.22;;;16.02;68.82
3260;BME280;68938;48.150;14.004;2023-05-11T07:29:04;97829.56;;;16.07;69.21
3260;BME280;68938;48.150;14.004;2023-05-11T07:31:31;97821.59;;;16.10;69.06
3260;BME280;68938;48.150;14.004;2023-05-11T07:33:58;97820.75;;;16.09;69.35
3260;BME280;68938;48.150;14.004;2023-05-11T07:36:25;97823.47;;;16.08;68.81
3260;BME280;68938;48.150;14.004;2023-05-11T07:38:52;97825.13;;;16.09;68.78
3260;BME280;68938;48.150;14.004;2023-05-11T07:41:19;97822.53;;;16.09;68.25
3260;BME280;68938;48.150;14.004;2023-05-11T07:43:46;97823.47;;;16.08;68.78
3260;BME280;68938;48.150;14.004;2023-05-11T07:46:13;97831.03;;;16.11;68.98
3260;BME280;68938;48.150;14.004;2023-05-11T07:48:40;97830.28;;;16.09;68.84
3260;BME280;68938;48.150;14.004;2023-05-11T07:51:07;97822.69;;;16.06;68.32
3260;BME280;68938;48.150;14.004;2023-05-11T07:53:34;97821.78;;;16.07;68.36
3260;BME280;68938;48.150;14.004;2023-05-11T07:56:01;97821.88;;;16.05;70.28
3260;BME280;68938;48.150;14.004;2023-05-11T07:58:28;97821.69;;;16.08;69.16
3260;BME280;68938;48.150;14.004;2023-05-11T08:00:56;97825.88;;;16.11;68.51
3260;BME280;68938;48.150;14.004;2023-05-11T08:03:23;97822.69;;;16.06;68.70
3260;BME280;68938;48.150;14.004;2023-05-11T08:05:50;97814.75;;;16.09;68.96
3260;BME280;68938;48.150;14.004;2023-05-11T08:08:17;97822.63;;;16.07;68.69
3260;BME280;68938;48.150;14.004;2023-05-11T08:10:44;97827.34;;;16.15;69.21
3260;BME280;68938;48.150;14.004;2023-05-11T08:13:10;97827.06;;;16.20;68.53
3260;BME280;68938;48.150;14.004;2023-05-11T08:15:37;97819.13;;;16.23;68.29
3260;BME280;68938;48.150;14.004;2023-05-11T08:18:04;97826.84;;;16.24;67.66
3260;BME280;68938;48.150;14.004;2023-05-11T08:20:31;97820.72;;;16.25;67.96
3260;BME280;68938;48.150;14.004;2023-05-11T08:22:58;97818.91;;;16.27;67.58
3260;BME280;68938;48.150;14.004;2023-05-11T08:25:25;97815.03;;;16.34;67.45
3260;BME280;68938;48.150;14.004;2023-05-11T08:27:52;97821.03;;;16.35;67.78
3260;BME280;68938;48.150;14.004;2023-05-11T08:30:19;97815.75;;;16.37;67.26
3260;BME280;68938;48.150;14.004;2023-05-11T08:32:46;97818.09;;;16.41;67.30
3260;BME280;68938;48.150;14.004;2023-05-11T08:35:24;97821.88;;;16.50;67.46
3260;BME280;68938;48.150;14.004;2023-05-11T08:37:51;97826.59;;;16.57;68.05
3260;BME280;68938;48.150;14.004;2023-05-11T08:40:19;97816.06;;;16.61;67.83
3260;BME280;68938;48.150;14.004;2023-05-11T08:42:48;97813.28;;;16.64;68.25
3260;BME280;68938;48.150;14.004;2023-05-11T08:45:19;97808.09;;;16.64;67.53
3260;BME280;68938;48.150;14.004;2023-05-11T08:47:47;97821.28;;;16.75;68.01
3260;BME280;68938;48.150;14.004;2023-05-11T08:50:14;97825.44;;;16.77;67.94
3260;BME280;68938;48.150;14.004;2023-05-11T08:52:42;97821.91;;;16.78;66.56
3260;BME280;68938;48.150;14.004;2023-05-11T08:55:09;97819.94;;;16.68;67.00
3260;BME280;68938;48.150;14.004;2023-05-11T08:57:37;97819.69;;;16.72;67.62
3260;BME280;68938;48.150;14.004;2023-05-11T09:00:06;97823.03;;;16.74;67.59
3260;BME280;68938;48.150;14.004;2023-05-11T09:02:34;97816.34;;;16.70;68.12
3260;BME280;68938;48.150;14.004;2023-05-11T09:05:01;97821.34;;;16.73;68.86
3260;BME280;68938;48.150;14.004;2023-05-11T09:07:29;97812.19;;;16.68;69.19
3260;BME280;68938;48.150;14.004;2023-05-11T09:09:57;97811.63;;;16.63;68.45
3260;BME280;68938;48.150;14.004;2023-05-11T09:12:24;97812.28;;;16.66;68.48
3260;BME280;68938;48.150;14.004;2023-05-11T09:14:51;97809.88;;;16.63;69.60
3260;BME280;68938;48.150;14.004;2023-05-11T09:17:18;97806.06;;;16.54;68.67
3260;BME280;68938;48.150;14.004;2023-05-11T09:20:03;97809.75;;;16.65;68.55
3260;BME280;68938;48.150;14.004;2023-05-11T09:22:32;97802.47;;;16.57;68.46
3260;BME280;68938;48.150;14.004;2023-05-11T09:25:02;97809.59;;;16.68;68.75
3260;BME280;68938;48.150;14.004;2023-05-11T09:27:29;97809.50;;;16.69;67.87
3260;BME280;68938;48.150;14.004;2023-05-11T09:30:09;97801.75;;;16.69;67.24
3260;BME280;68938;48.150;14.004;2023-05-11T09:35:29;97806.81;;;16.71;66.54
3260;BME280;68938;48.150;14.004;2023-05-11T09:38:17;97804.72;;;16.92;66.97
3260;BME280;68938;48.150;14.004;2023-05-11T09:40:54;97806.09;;;16.97;67.76
3260;BME280;68938;48.150;14.004;2023-05-11T09:43:26;97801.41;;;16.90;66.96
3260;BME280;68938;48.150;14.004;2023-05-11T09:45:56;97807.13;;;16.95;66.17
3260;BME280;68938;48.150;14.004;2023-05-11T09:48:31;97792.66;;;17.05;67.66
3260;BME280;68938;48.150;14.004;2023-05-11T09:51:06;97785.91;;;17.02;66.28
3260;BME280;68938;48.150;14.004;2023-05-11T09:53:42;97793.75;;;17.15;65.65
3260;BME280;68938;48.150;14.004;2023-05-11T09:56:11;97789.16;;;17.20;65.74
3260;BME280;68938;48.150;14.004;2023-05-11T10:01:27;97792.81;;;17.31;66.23
3260;BME280;68938;48.150;14.004;2023-05-11T10:04:00;97796.63;;;17.25;64.90
3260;BME280;68938;48.150;14.004;2023-05-11T10:06:50;97794.34;;;17.20;65.47
3260;BME280;68938;48.150;14.004;2023-05-11T10:09:22;97798.09;;;17.29;65.36
3260;BME280;68938;48.150;14.004;2023-05-11T10:11:51;97793.47;;;17.34;66.01
3260;BME280;68938;48.150;14.004;2023-05-11T10:14:20;97792.38;;;17.24;66.09
3260;BME280;68938;48.150;14.004;2023-05-11T10:16:48;97784.03;;;17.19;66.37
3260;BME280;68938;48.150;14.004;2023-05-11T10:19:16;97781.56;;;17.17;66.29
3260;BME280;68938;48.150;14.004;2023-05-11T10:21:43;97785.44;;;17.24;66.70
3260;BME280;68938;48.150;14.004;2023-05-11T10:24:11;97784.69;;;17.22;67.76
3260;BME280;68938;48.150;14.004;2023-05-11T10:26:38;97778.81;;;17.06;66.34
3260;BME280;68938;48.150;14.004;2023-05-11T10:29:06;97778.53;;;16.96;67.77
3260;BME280;68938;48.150;14.004;2023-05-11T10:31:33;97781.31;;;16.93;67.61
3260;BME280;68938;48.150;14.004;2023-05-11T10:34:01;97781.41;;;16.92;67.75
3260;BME280;68938;48.150;14.004;2023-05-11T10:36:28;97775.50;;;16.90;68.36
3260;BME280;68938;48.150;14.004;2023-05-11T10:38:55;97768.72;;;16.87;68.90
3260;BME280;68938;48.150;14.004;2023-05-11T10:41:56;97765.78;;;16.93;69.74
3260;BME280;68938;48.150;14.004;2023-05-11T10:44:58;97760.31;;;16.55;69.60
3260;BME280;68938;48.150;14.004;2023-05-11T10:50:46;97753.75;;;16.92;69.46
3260;BME280;68938;48.150;14.004;2023-05-11T10:56:46;97753.03;;;17.17;67.16
3260;BME280;68938;48.150;14.004;2023-05-11T11:02:22;97744.34;;;17.45;66.04
3260;BME280;68938;48.150;14.004;2023-05-11T11:04:56;97747.06;;;17.44;65.00
3260;BME280;68938;48.150;14.004;2023-05-11T11:07:23;97751.28;;;17.45;65.79
3260;BME280;68938;48.150;14.004;2023-05-11T11:12:18;97748.13;;;17.54;63.72
3260;BME280;68938;48.150;14.004;2023-05-11T11:14:56;97747.22;;;17.68;63.81
3260;BME280;68938;48.150;14.004;2023-05-11T11:17:29;97744.53;;;17.69;63.46
3260;BME280;68938;48.150;14.004;2023-05-11T11:20:03;97748.44;;;17.62;63.60
3260;BME280;68938;48.150;14.004;2023-05-11T11:25:02;97739.72;;;17.63;63.83
3260;BME280;68938;48.150;14.004;2023-05-11T11:38:18;97726.50;;;17.81;64.24
3260;BME280;68938;48.150;14.004;2023-05-11T11:40:50;97726.22;;;17.85;63.70
3260;BME280;68938;48.150;14.004;2023-05-11T11:43:25;97729.03;;;17.82;63.17
3260;BME280;68938;48.150;14.004;2023-05-11T11:46:01;97732.97;;;17.88;64.27
3260;BME280;68938;48.150;14.004;2023-05-11T11:48:38;97721.88;;;17.86;65.15
3260;BME280;68938;48.150;14.004;2023-05-11T11:51:10;97727.69;;;17.89;64.42
3260;BME280;68938;48.150;14.004;2023-05-11T11:56:07;97722.31;;;18.05;62.91
3260;BME280;68938;48.150;14.004;2023-05-11T12:01:09;97725.41;;;18.10;63.15
3260;BME280;68938;48.150;14.004;2023-05-11T12:03:44;97717.75;;;18.09;63.47
3260;BME280;68938;48.150;14.004;2023-05-11T12:06:13;97726.84;;;17.89;64.85
3260;BME280;68938;48.150;14.004;2023-05-11T12:08:41;97727.25;;;17.83;65.50
3260;BME280;68938;48.150;14.004;2023-05-11T12:11:08;97720.59;;;17.91;64.61
3260;BME280;68938;48.150;14.004;2023-05-11T12:13:35;97719.59;;;18.07;65.01
3260;BME280;68938;48.150;14.004;2023-05-11T12:16:14;97722.31;;;18.18;65.08
3260;BME280;68938;48.150;14.004;2023-05-11T12:18:54;97712.97;;;18.15;65.11
3260;BME280;68938;48.150;14.004;2023-05-11T12:21:28;97716.41;;;18.16;63.18
3260;BME280;68938;48.150;14.004;2023-05-11T12:24:05;97718.47;;;18.11;63.84
3260;BME280;68938;48.150;14.004;2023-05-11T12:26:34;97711.00;;;18.06;62.39
3260;BME280;68938;48.150;14.004;2023-05-11T12:29:11;97717.44;;;18.13;62.71
3260;BME280;68938;48.150;14.004;2023-05-11T12:31:44;97718.56;;;18.09;62.99
3260;BME280;68938;48.150;14.004;2023-05-11T12:34:15;97711.09;;;18.17;62.28
3260;BME280;68938;48.150;14.004;2023-05-11T12:36:44;97719.41;;;18.22;63.08
3260;BME280;68938;48.150;14.004;2023-05-11T12:39:17;97715.16;;;18.09;62.47
3260;BME280;68938;48.150;14.004;2023-05-11T12:41:48;97715.25;;;18.07;63.31
3260;BME280;68938;48.150;14.004;2023-05-11T12:44:17;97714.81;;;18.00;63.65
3260;BME280;68938;48.150;14.004;2023-05-11T12:46:45;97707.56;;;18.06;63.65
3260;BME280;68938;48.150;14.004;2023-05-11T12:49:23;97708.41;;;18.06;62.93
3260;BME280;68938;48.150;14.004;2023-05-11T12:54:29;97701.84;;;18.13;63.90
3260;BME280;68938;48.150;14.004;2023-05-11T12:57:00;97698.03;;;18.19;63.07
3260;BME280;68938;48.150;14.004;2023-05-11T13:02:16;97703.84;;;18.22;63.58
3260;BME280;68938;48.150;14.004;2023-05-11T13:04:45;97683.28;;;18.19;63.26
3260;BME280;68938;48.150;14.004;2023-05-11T13:07:23;97692.59;;;18.22;63.43
3260;BME280;68938;48.150;14.004;2023-05-11T13:09:56;97692.50;;;18.23;63.18
3260;BME280;68938;48.150;14.004;2023-05-11T13:12:24;97686.38;;;18.12;64.33
3260;BME280;68938;48.150;14.004;2023-05-11T13:15:06;97684.50;;;18.14;64.07
3260;BME280;68938;48.150;14.004;2023-05-11T13:17:38;97688.66;;;18.16;64.96
3260;BME280;68938;48.150;14.004;2023-05-11T13:20:17;97685.88;;;18.19;64.81
3260;BME280;68938;48.150;14.004;2023-05-11T13:22:47;97688.47;;;18.19;64.37
3260;BME280;68938;48.150;14.004;2023-05-11T13:25:17;97686.50;;;18.23;63.98
3260;BME280;68938;48.150;14.004;2023-05-11T13:27:46;97675.47;;;18.19;64.10
3260;BME280;68938;48.150;14.004;2023-05-11T13:30:13;97677.75;;;18.24;64.92
3260;BME280;68938;48.150;14.004;2023-05-11T13:32:40;97673.09;;;18.29;64.35
3260;BME280;68938;48.150;14.004;2023-05-11T13:35:07;97678.28;;;18.29;64.91
3260;BME280;68938;48.150;14.004;2023-05-11T13:37:35;97675.16;;;18.24;64.79
3260;BME280;68938;48.150;14.004;2023-05-11T13:40:02;97668.59;;;18.18;64.07
3260;BME280;68938;48.150;14.004;2023-05-11T13:42:31;97672.69;;;18.22;64.67
3260;BME280;68938;48.150;14.004;2023-05-11T13:44:57;97672.47;;;18.26;65.63
3260;BME280;68938;48.150;14.004;2023-05-11T13:47:24;97670.09;;;18.22;65.34
3260;BME280;68938;48.150;14.004;2023-05-11T13:49:51;97669.03;;;18.25;65.76
3260;BME280;68938;48.150;14.004;2023-05-11T13:52:19;97666.41;;;18.25;66.18
3260;BME280;68938;48.150;14.004;2023-05-11T13:54:47;97666.41;;;18.25;66.39
3260;BME280;68938;48.150;14.004;2023-05-11T13:57:14;97669.03;;;18.25;66.21
3260;BME280;68938;48.150;14.004;2023-05-11T13:59:41;97672.56;;;18.24;66.78
3260;BME280;68938;48.150;14.004;2023-05-11T14:02:08;97669.88;;;18.26;67.12